TimePST,TemperatureF,Dew PointF,Humidity,Sea Level PressureIn,VisibilityMPH,Wind Direction,Wind SpeedMPH,Gust SpeedMPH,PrecipitationIn,Events,Conditions,WindDirDegrees,DateUTC
12:53 AM,48.0,46.0,93,30.20,6.0,East,5.8,-,0.06,Rain,Light Rain,90,2013-12-01 08:53:00
1:53 AM,48.0,46.0,93,30.18,7.0,ENE,3.5,-,0.15,Rain,Light Rain,60,2013-12-01 09:53:00
2:53 AM,48.0,46.0,93,30.14,10.0,North,4.6,-,0.04,Rain,Light Rain,350,2013-12-01 10:53:00
3:49 AM,53.6,48.2,82,30.11,10.0,SSW,18.4,27.6,0.00,Rain,Light Rain,210,2013-12-01 11:49:00
3:53 AM,53.1,48.0,83,30.11,10.0,SSW,19.6,26.5,0.00,,Overcast,210,2013-12-01 11:53:00
4:44 AM,53.6,48.2,82,30.08,10.0,SW,19.6,29.9,0.00,Rain,Light Rain,220,2013-12-01 12:44:00
4:53 AM,54.0,48.9,83,30.09,10.0,SW,18.4,32.2,0.00,Rain,Light Rain,220,2013-12-01 12:53:00
5:26 AM,53.6,50.0,88,30.10,10.0,SW,17.3,25.3,0.02,Rain,Light Rain,220,2013-12-01 13:26:00
5:53 AM,54.0,50.0,86,30.09,10.0,SW,18.4,28.8,0.03,Rain,Light Rain,220,2013-12-01 13:53:00
6:04 AM,53.6,50.0,88,30.09,10.0,SW,18.4,27.6,0.00,Rain,Light Rain,220,2013-12-01 14:04:00
6:21 AM,53.6,50.0,88,30.09,10.0,SW,17.3,31.1,0.01,Rain,Light Rain,220,2013-12-01 14:21:00
6:53 AM,54.0,50.0,86,30.09,10.0,SSW,19.6,28.8,0.03,Rain,Light Rain,210,2013-12-01 14:53:00
7:53 AM,55.0,50.0,83,30.11,10.0,SW,16.1,24.2,0.00,,Overcast,220,2013-12-01 15:53:00
8:05 AM,55.4,50.0,82,30.11,10.0,SW,17.3,31.1,N/A,,Overcast,220,2013-12-01 16:05:00
8:53 AM,55.0,51.1,86,30.12,10.0,SW,16.1,27.6,0.00,,Overcast,220,2013-12-01 16:53:00
9:53 AM,55.9,51.1,84,30.12,10.0,SW,15.0,24.2,N/A,,Overcast,220,2013-12-01 17:53:00
10:53 AM,57.0,51.1,81,30.10,10.0,SSW,17.3,25.3,N/A,,Overcast,210,2013-12-01 18:53:00
11:45 AM,57.2,51.8,82,30.07,10.0,SW,18.4,29.9,N/A,,Overcast,220,2013-12-01 19:45:00
11:53 AM,57.0,51.1,81,30.08,10.0,SW,17.3,29.9,N/A,,Overcast,220,2013-12-01 19:53:00
12:19 PM,57.2,51.8,82,30.06,10.0,SW,18.4,26.5,0.00,Rain,Light Rain,230,2013-12-01 20:19:00
12:40 PM,57.2,51.8,82,30.06,10.0,SW,18.4,27.6,0.00,Rain,Light Rain,220,2013-12-01 20:40:00
12:53 PM,57.0,51.1,81,30.06,10.0,SW,17.3,27.6,0.00,,Overcast,230,2013-12-01 20:53:00
1:53 PM,57.0,52.0,83,30.04,10.0,SW,19.6,34.5,0.01,Rain,Light Rain,220,2013-12-01 21:53:00
2:53 PM,57.0,52.0,83,30.01,7.0,SW,20.7,32.2,0.05,Rain,Light Rain,220,2013-12-01 22:53:00
3:53 PM,57.0,52.0,83,29.99,10.0,WSW,19.6,27.6,0.04,Rain,Light Rain,240,2013-12-01 23:53:00
4:53 PM,55.9,51.1,84,29.96,10.0,SW,17.3,33.4,0.05,Rain,Light Rain,230,2013-12-02 00:53:00
5:00 PM,55.4,51.8,88,29.96,10.0,SW,20.7,27.6,0.00,Rain,Light Rain,230,2013-12-02 01:00:00
5:53 PM,55.9,51.1,84,29.96,10.0,WSW,19.6,28.8,0.00,Rain,Light Rain,240,2013-12-02 01:53:00
6:53 PM,55.0,50.0,83,29.94,10.0,SW,13.8,28.8,0.01,Rain,Light Rain,230,2013-12-02 02:53:00
7:53 PM,54.0,50.0,86,29.93,6.0,SW,19.6,26.5,0.09,Rain,Light Rain,230,2013-12-02 03:53:00
8:06 PM,53.6,50.0,88,29.92,7.0,SW,16.1,27.6,0.02,Rain,Light Rain,230,2013-12-02 04:06:00
8:53 PM,54.0,50.0,86,29.91,7.0,SW,17.3,28.8,0.10,Rain,Light Rain,230,2013-12-02 04:53:00
9:05 PM,53.6,50.0,88,29.91,8.0,WSW,17.3,26.5,0.03,Rain,Light Rain,240,2013-12-02 05:05:00
9:31 PM,53.6,51.8,94,29.92,4.0,WNW,8.1,25.3,0.12,Rain,Rain,290,2013-12-02 05:31:00
9:34 PM,53.6,51.8,94,29.93,2.5,WNW,11.5,24.2,0.18,Rain,Heavy Rain,290,2013-12-02 05:34:00
9:38 PM,53.6,51.8,94,29.93,1.5,West,11.5,20.7,0.24,Rain,Heavy Rain,280,2013-12-02 05:38:00
9:45 PM,53.6,51.8,94,29.93,2.0,WNW,9.2,20.7,0.28,Rain,Rain,290,2013-12-02 05:45:00
9:48 PM,53.6,51.8,94,29.93,3.0,West,8.1,-,0.29,Rain,Rain,280,2013-12-02 05:48:00
9:53 PM,53.1,51.1,93,29.93,4.0,West,9.2,-,0.31,Rain,Rain,270,2013-12-02 05:53:00
10:43 PM,53.6,51.8,94,29.92,6.0,WSW,3.5,-,0.08,Rain,Light Rain,250,2013-12-02 06:43:00
10:53 PM,53.1,50.0,89,29.92,7.0,West,5.8,-,0.10,Rain,Light Rain,260,2013-12-02 06:53:00
11:53 PM,53.1,48.9,86,29.91,10.0,WSW,10.4,-,0.02,Rain,Light Rain,240,2013-12-02 07:53:00